sensor_id;sensor_type;location;lat;lon;timestamp;P1;durP1;ratioP1;P2;durP2;ratioP2
76322;SDS011;65141;42.964;21.838;2022-12-20T00:02:17;57.17;;;31.25;;
76322;SDS011;65141;42.964;21.838;2022-12-20T00:04:43;62.85;;;28.40;;
76322;SDS011;65141;42.964;21.838;2022-12-20T00:07:10;59.28;;;27.88;;
76322;SDS011;65141;42.964;21.838;2022-12-20T00:09:36;69.55;;;31.38;;
76322;SDS011;65141;42.964;21.838;2022-12-20T00:12:02;91.90;;;38.40;;
76322;SDS011;65141;42.964;21.838;2022-12-20T00:14:28;88.18;;;39.55;;
76322;SDS011;65141;42.964;21.838;2022-12-20T00:16:54;89.32;;;42.08;;
76322;SDS011;65141;42.964;21.838;2022-12-20T00:19:20;75.28;;;37.78;;
76322;SDS011;65141;42.964;21.838;2022-12-20T00:21:46;71.47;;;37.13;;
76322;SDS011;65141;42.964;21.838;2022-12-20T00:24:12;73.43;;;38.58;;
76322;SDS011;65141;42.964;21.838;2022-12-20T00:26:38;68.75;;;34.70;;
76322;SDS011;65141;42.964;21.838;2022-12-20T00:29:05;59.70;;;29.85;;
76322;SDS011;65141;42.964;21.838;2022-12-20T00:31:31;54.15;;;28.30;;
76322;SDS011;65141;42.964;21.838;2022-12-20T00:33:58;52.97;;;28.30;;
76322;SDS011;65141;42.964;21.838;2022-12-20T00:36:25;51.55;;;27.15;;
76322;SDS011;65141;42.964;21.838;2022-12-20T00:38:52;60.20;;;33.65;;
76322;SDS011;65141;42.964;21.838;2022-12-20T00:41:20;58.53;;;29.48;;
76322;SDS011;65141;42.964;21.838;2022-12-20T00:43:47;43.85;;;25.42;;
76322;SDS011;65141;42.964;21.838;2022-12-20T00:46:14;55.30;;;27.17;;
76322;SDS011;65141;42.964;21.838;2022-12-20T00:48:40;54.05;;;32.03;;
76322;SDS011;65141;42.964;21.838;2022-12-20T00:51:07;49.80;;;27.60;;
76322;SDS011;65141;42.964;21.838;2022-12-20T00:53:34;52.67;;;22.92;;
76322;SDS011;65141;42.964;21.838;2022-12-20T00:56:01;53.03;;;24.50;;
76322;SDS011;65141;42.964;21.838;2022-12-20T00:58:27;48.35;;;23.83;;
76322;SDS011;65141;42.964;21.838;2022-12-20T01:00:54;44.50;;;22.30;;
76322;SDS011;65141;42.964;21.838;2022-12-20T01:03:20;47.47;;;22.00;;
76322;SDS011;65141;42.964;21.838;2022-12-20T01:05:50;64.22;;;31.58;;
76322;SDS011;65141;42.964;21.838;2022-12-20T01:08:17;53.17;;;27.38;;
76322;SDS011;65141;42.964;21.838;2022-12-20T01:10:43;74.20;;;38.42;;
76322;SDS011;65141;42.964;21.838;2022-12-20T01:13:09;58.65;;;29.55;;
76322;SDS011;65141;42.964;21.838;2022-12-20T01:15:35;66.90;;;31.13;;
76322;SDS011;65141;42.964;21.838;2022-12-20T01:18:02;59.38;;;27.95;;
76322;SDS011;65141;42.964;21.838;2022-12-20T01:20:28;47.35;;;25.85;;
76322;SDS011;65141;42.964;21.838;2022-12-20T01:22:54;62.50;;;32.15;;
76322;SDS011;65141;42.964;21.838;2022-12-20T01:25:20;63.75;;;31.35;;
76322;SDS011;65141;42.964;21.838;2022-12-20T01:27:46;44.78;;;25.27;;
76322;SDS011;65141;42.964;21.838;2022-12-20T01:30:13;55.30;;;28.38;;
76322;SDS011;65141;42.964;21.838;2022-12-20T01:32:39;49.45;;;25.88;;
76322;SDS011;65141;42.964;21.838;2022-12-20T01:35:06;42.53;;;22.00;;
76322;SDS011;65141;42.964;21.838;2022-12-20T01:37:32;50.95;;;23.63;;
76322;SDS011;65141;42.964;21.838;2022-12-20T01:39:58;48.20;;;20.95;;
76322;SDS011;65141;42.964;21.838;2022-12-20T01:42:24;51.47;;;23.33;;
76322;SDS011;65141;42.964;21.838;2022-12-20T01:44:52;51.95;;;25.20;;
76322;SDS011;65141;42.964;21.838;2022-12-20T01:47:19;50.63;;;24.25;;
76322;SDS011;65141;42.964;21.838;2022-12-20T01:49:46;48.40;;;23.27;;
76322;SDS011;65141;42.964;21.838;2022-12-20T01:52:14;56.53;;;28.17;;
76322;SDS011;65141;42.964;21.838;2022-12-20T01:54:47;66.95;;;33.30;;
76322;SDS011;65141;42.964;21.838;2022-12-20T01:57:23;57.58;;;32.45;;
76322;SDS011;65141;42.964;21.838;2022-12-20T01:59:50;48.35;;;24.75;;
76322;SDS011;65141;42.964;21.838;2022-12-20T02:02:16;56.63;;;27.10;;
76322;SDS011;65141;42.964;21.838;2022-12-20T02:04:43;51.78;;;23.85;;
76322;SDS011;65141;42.964;21.838;2022-12-20T02:07:10;47.25;;;23.88;;
76322;SDS011;65141;42.964;21.838;2022-12-20T02:09:37;76.72;;;38.75;;
76322;SDS011;65141;42.964;21.838;2022-12-20T02:12:19;54.72;;;29.80;;
76322;SDS011;65141;42.964;21.838;2022-12-20T02:20:12;43.60;;;21.90;;
76322;SDS011;65141;42.964;21.838;2022-12-20T02:27:53;42.60;;;20.63;;
76322;SDS011;65141;42.964;21.838;2022-12-20T02:30:22;50.40;;;23.90;;
76322;SDS011;65141;42.964;21.838;2022-12-20T02:33:05;101.25;;;46.17;;
76322;SDS011;65141;42.964;21.838;2022-12-20T02:35:33;49.55;;;25.15;;
76322;SDS011;65141;42.964;21.838;2022-12-20T02:38:01;84.78;;;39.85;;
76322;SDS011;65141;42.964;21.838;2022-12-20T02:40:33;133.50;;;50.83;;
76322;SDS011;65141;42.964;21.838;2022-12-20T02:43:03;108.85;;;42.30;;
76322;SDS011;65141;42.964;21.838;2022-12-20T02:48:16;103.47;;;40.67;;
76322;SDS011;65141;42.964;21.838;2022-12-20T02:50:45;62.28;;;29.75;;
76322;SDS011;65141;42.964;21.838;2022-12-20T02:53:12;43.47;;;21.30;;
76322;SDS011;65141;42.964;21.838;2022-12-20T02:58:06;61.58;;;27.30;;
76322;SDS011;65141;42.964;21.838;2022-12-20T03:00:36;54.42;;;24.48;;
76322;SDS011;65141;42.964;21.838;2022-12-20T03:03:03;50.90;;;21.88;;
76322;SDS011;65141;42.964;21.838;2022-12-20T03:05:52;39.60;;;19.33;;
76322;SDS011;65141;42.964;21.838;2022-12-20T03:08:19;45.72;;;20.92;;
76322;SDS011;65141;42.964;21.838;2022-12-20T03:10:46;51.38;;;22.75;;
76322;SDS011;65141;42.964;21.838;2022-12-20T03:13:12;55.63;;;22.67;;
76322;SDS011;65141;42.964;21.838;2022-12-20T03:15:38;49.05;;;20.67;;
76322;SDS011;65141;42.964;21.838;2022-12-20T03:18:05;37.38;;;16.40;;
76322;SDS011;65141;42.964;21.838;2022-12-20T03:20:31;32.70;;;16.42;;
76322;SDS011;65141;42.964;21.838;2022-12-20T03:22:57;54.25;;;26.60;;
76322;SDS011;65141;42.964;21.838;2022-12-20T03:25:23;39.67;;;19.65;;
76322;SDS011;65141;42.964;21.838;2022-12-20T03:27:49;48.05;;;21.92;;
76322;SDS011;65141;42.964;21.838;2022-12-20T03:30:15;48.40;;;20.42;;
76322;SDS011;65141;42.964;21.838;2022-12-20T03:32:41;35.70;;;17.30;;
76322;SDS011;65141;42.964;21.838;2022-12-20T03:35:08;40.65;;;17.80;;
76322;SDS011;65141;42.964;21.838;2022-12-20T03:37:34;43.97;;;19.95;;
76322;SDS011;65141;42.964;21.838;2022-12-20T03:40:00;36.42;;;17.98;;
76322;SDS011;65141;42.964;21.838;2022-12-20T03:42:26;38.63;;;16.45;;
76322;SDS011;65141;42.964;21.838;2022-12-20T03:44:52;32.67;;;15.70;;
76322;SDS011;65141;42.964;21.838;2022-12-20T03:47:18;31.85;;;15.93;;
76322;SDS011;65141;42.964;21.838;2022-12-20T03:49:44;45.83;;;19.95;;
76322;SDS011;65141;42.964;21.838;2022-12-20T03:52:11;44.78;;;19.20;;
76322;SDS011;65141;42.964;21.838;2022-12-20T03:54:37;43.67;;;17.80;;
76322;SDS011;65141;42.964;21.838;2022-12-20T03:57:03;38.00;;;17.80;;
76322;SDS011;65141;42.964;21.838;2022-12-20T03:59:29;36.78;;;16.73;;
76322;SDS011;65141;42.964;21.838;2022-12-20T04:01:55;37.05;;;16.63;;
76322;SDS011;65141;42.964;21.838;2022-12-20T04:04:21;38.97;;;17.58;;
76322;SDS011;65141;42.964;21.838;2022-12-20T04:06:48;40.13;;;17.05;;
76322;SDS011;65141;42.964;21.838;2022-12-20T04:09:14;63.00;;;23.85;;
76322;SDS011;65141;42.964;21.838;2022-12-20T04:11:40;63.08;;;23.10;;
76322;SDS011;65141;42.964;21.838;2022-12-20T04:14:06;44.45;;;18.42;;
76322;SDS011;65141;42.964;21.838;2022-12-20T04:16:32;35.40;;;16.35;;
76322;SDS011;65141;42.964;21.838;2022-12-20T04:18:59;47.70;;;19.58;;
76322;SDS011;65141;42.964;21.838;2022-12-20T04:21:26;38.90;;;17.13;;
76322;SDS011;65141;42.964;21.838;2022-12-20T04:23:52;32.97;;;15.38;;
76322;SDS011;65141;42.964;21.838;2022-12-20T04:26:18;36.85;;;16.60;;
76322;SDS011;65141;42.964;21.838;2022-12-20T04:28:44;41.30;;;18.05;;
76322;SDS011;65141;42.964;21.838;2022-12-20T04:31:11;56.65;;;23.58;;
76322;SDS011;65141;42.964;21.838;2022-12-20T04:33:37;54.50;;;23.42;;
76322;SDS011;65141;42.964;21.838;2022-12-20T04:36:03;47.30;;;20.27;;
76322;SDS011;65141;42.964;21.838;2022-12-20T04:38:30;37.00;;;17.48;;
76322;SDS011;65141;42.964;21.838;2022-12-20T04:40:56;43.45;;;19.58;;
76322;SDS011;65141;42.964;21.838;2022-12-20T04:43:22;56.78;;;25.00;;
76322;SDS011;65141;42.964;21.838;2022-12-20T04:45:49;55.50;;;23.85;;
76322;SDS011;65141;42.964;21.838;2022-12-20T04:48:17;46.85;;;20.67;;
76322;SDS011;65141;42.964;21.838;2022-12-20T04:50:46;52.05;;;24.20;;
76322;SDS011;65141;42.964;21.838;2022-12-20T04:53:13;49.28;;;22.27;;
76322;SDS011;65141;42.964;21.838;2022-12-20T04:55:57;43.45;;;20.70;;
76322;SDS011;65141;42.964;21.838;2022-12-20T04:58:23;43.75;;;21.73;;
76322;SDS011;65141;42.964;21.838;2022-12-20T05:00:50;45.05;;;21.63;;
76322;SDS011;65141;42.964;21.838;2022-12-20T05:03:20;39.13;;;19.92;;
76322;SDS011;65141;42.964;21.838;2022-12-20T05:05:46;40.50;;;19.10;;
76322;SDS011;65141;42.964;21.838;2022-12-20T05:08:12;41.65;;;17.30;;
76322;SDS011;65141;42.964;21.838;2022-12-20T05:10:39;34.25;;;16.27;;
76322;SDS011;65141;42.964;21.838;2022-12-20T05:13:05;52.58;;;21.52;;
76322;SDS011;65141;42.964;21.838;2022-12-20T05:15:31;54.55;;;23.90;;
76322;SDS011;65141;42.964;21.838;2022-12-20T05:17:57;43.05;;;19.95;;
76322;SDS011;65141;42.964;21.838;2022-12-20T05:20:30;48.78;;;21.00;;
76322;SDS011;65141;42.964;21.838;2022-12-20T05:22:57;56.97;;;25.27;;
76322;SDS011;65141;42.964;21.838;2022-12-20T05:25:43;47.85;;;22.02;;
76322;SDS011;65141;42.964;21.838;2022-12-20T05:28:28;41.42;;;20.35;;
76322;SDS011;65141;42.964;21.838;2022-12-20T05:30:54;62.58;;;27.55;;
76322;SDS011;65141;42.964;21.838;2022-12-20T05:33:20;53.30;;;23.00;;
76322;SDS011;65141;42.964;21.838;2022-12-20T05:35:47;40.28;;;18.25;;
76322;SDS011;65141;42.964;21.838;2022-12-20T05:38:13;41.72;;;21.00;;
76322;SDS011;65141;42.964;21.838;2022-12-20T05:40:39;122.38;;;52.53;;
76322;SDS011;65141;42.964;21.838;2022-12-20T05:43:05;77.18;;;33.65;;
76322;SDS011;65141;42.964;21.838;2022-12-20T05:45:32;41.95;;;19.77;;
76322;SDS011;65141;42.964;21.838;2022-12-20T05:47:59;49.60;;;20.23;;
76322;SDS011;65141;42.964;21.838;2022-12-20T05:50:25;76.40;;;33.10;;
76322;SDS011;65141;42.964;21.838;2022-12-20T05:52:52;48.17;;;22.88;;
76322;SDS011;65141;42.964;21.838;2022-12-20T05:55:18;43.80;;;19.85;;
76322;SDS011;65141;42.964;21.838;2022-12-20T05:57:44;36.47;;;16.95;;
76322;SDS011;65141;42.964;21.838;2022-12-20T06:00:10;46.13;;;19.58;;
76322;SDS011;65141;42.964;21.838;2022-12-20T06:02:37;49.35;;;22.02;;
76322;SDS011;65141;42.964;21.838;2022-12-20T06:05:04;49.03;;;24.38;;
76322;SDS011;65141;42.964;21.838;2022-12-20T06:07:30;44.22;;;19.52;;
76322;SDS011;65141;42.964;21.838;2022-12-20T06:09:56;66.30;;;28.92;;
76322;SDS011;65141;42.964;21.838;2022-12-20T06:12:23;59.40;;;28.02;;
76322;SDS011;65141;42.964;21.838;2022-12-20T06:14:49;57.13;;;25.60;;
76322;SDS011;65141;42.964;21.838;2022-12-20T06:17:15;61.55;;;25.65;;
76322;SDS011;65141;42.964;21.838;2022-12-20T06:19:42;69.13;;;29.83;;
76322;SDS011;65141;42.964;21.838;2022-12-20T06:22:08;65.85;;;29.73;;
76322;SDS011;65141;42.964;21.838;2022-12-20T06:24:35;68.47;;;30.73;;
76322;SDS011;65141;42.964;21.838;2022-12-20T06:27:02;60.67;;;26.70;;
76322;SDS011;65141;42.964;21.838;2022-12-20T06:29:28;46.80;;;22.20;;
76322;SDS011;65141;42.964;21.838;2022-12-20T06:31:55;48.63;;;23.52;;
76322;SDS011;65141;42.964;21.838;2022-12-20T06:34:21;45.45;;;21.63;;
76322;SDS011;65141;42.964;21.838;2022-12-20T06:36:47;47.17;;;21.63;;
76322;SDS011;65141;42.964;21.838;2022-12-20T06:39:13;55.53;;;24.95;;
76322;SDS011;65141;42.964;21.838;2022-12-20T06:41:39;53.75;;;24.15;;
76322;SDS011;65141;42.964;21.838;2022-12-20T06:44:06;56.33;;;25.65;;
76322;SDS011;65141;42.964;21.838;2022-12-20T06:46:32;60.63;;;29.25;;
76322;SDS011;65141;42.964;21.838;2022-12-20T06:48:58;60.85;;;26.88;;
76322;SDS011;65141;42.964;21.838;2022-12-20T06:51:24;54.15;;;25.95;;
76322;SDS011;65141;42.964;21.838;2022-12-20T06:53:50;46.03;;;23.67;;
76322;SDS011;65141;42.964;21.838;2022-12-20T06:58:44;33.15;;;19.02;;
76322;SDS011;65141;42.964;21.838;2022-12-20T07:01:10;39.05;;;20.55;;
76322;SDS011;65141;42.964;21.838;2022-12-20T07:03:37;40.30;;;21.27;;
76322;SDS011;65141;42.964;21.838;2022-12-20T07:06:03;39.42;;;20.30;;
76322;SDS011;65141;42.964;21.838;2022-12-20T07:08:29;38.42;;;19.08;;
76322;SDS011;65141;42.964;21.838;2022-12-20T07:10:55;51.28;;;22.13;;
76322;SDS011;65141;42.964;21.838;2022-12-20T07:13:21;47.22;;;22.88;;
76322;SDS011;65141;42.964;21.838;2022-12-20T07:15:48;47.80;;;27.35;;
